sensor_id;sensor_type;location;lat;lon;timestamp;P1;durP1;ratioP1;P2;durP2;ratioP2
739;SDS011;354;42.694;23.336;2023-11-21T00:01:39;27.27;;;21.20;;
739;SDS011;354;42.694;23.336;2023-11-21T00:04:05;28.57;;;23.37;;
739;SDS011;354;42.694;23.336;2023-11-21T00:06:32;30.67;;;23.87;;
739;SDS011;354;42.694;23.336;2023-11-21T00:08:57;29.97;;;25.50;;
739;SDS011;354;42.694;23.336;2023-11-21T00:11:23;33.77;;;24.73;;
739;SDS011;354;42.694;23.336;2023-11-21T00:13:50;35.13;;;26.47;;
739;SDS011;354;42.694;23.336;2023-11-21T00:16:15;29.00;;;22.70;;
739;SDS011;354;42.694;23.336;2023-11-21T00:18:40;29.87;;;23.20;;
739;SDS011;354;42.694;23.336;2023-11-21T00:21:06;31.90;;;24.30;;
739;SDS011;354;42.694;23.336;2023-11-21T00:23:32;31.80;;;23.53;;
739;SDS011;354;42.694;23.336;2023-11-21T00:25:57;32.03;;;23.17;;
739;SDS011;354;42.694;23.336;2023-11-21T00:28:22;33.27;;;23.50;;
739;SDS011;354;42.694;23.336;2023-11-21T00:30:48;30.07;;;25.73;;
739;SDS011;354;42.694;23.336;2023-11-21T00:33:13;39.90;;;27.20;;
739;SDS011;354;42.694;23.336;2023-11-21T00:35:39;46.57;;;32.17;;
739;SDS011;354;42.694;23.336;2023-11-21T00:38:04;40.47;;;28.20;;
739;SDS011;354;42.694;23.336;2023-11-21T00:40:29;52.80;;;31.03;;
739;SDS011;354;42.694;23.336;2023-11-21T00:42:55;46.43;;;31.67;;
739;SDS011;354;42.694;23.336;2023-11-21T00:45:21;46.97;;;31.23;;
739;SDS011;354;42.694;23.336;2023-11-21T00:47:46;45.37;;;31.13;;
739;SDS011;354;42.694;23.336;2023-11-21T00:50:12;44.60;;;31.93;;
739;SDS011;354;42.694;23.336;2023-11-21T00:52:37;47.40;;;31.30;;
739;SDS011;354;42.694;23.336;2023-11-21T00:55:03;50.80;;;35.43;;
739;SDS011;354;42.694;23.336;2023-11-21T00:57:29;46.53;;;35.27;;
739;SDS011;354;42.694;23.336;2023-11-21T00:59:55;49.23;;;34.00;;
739;SDS011;354;42.694;23.336;2023-11-21T01:02:20;46.37;;;32.57;;
739;SDS011;354;42.694;23.336;2023-11-21T01:04:45;49.53;;;32.73;;
739;SDS011;354;42.694;23.336;2023-11-21T01:07:12;47.13;;;34.63;;
739;SDS011;354;42.694;23.336;2023-11-21T01:09:38;45.13;;;34.27;;
739;SDS011;354;42.694;23.336;2023-11-21T01:12:03;48.80;;;34.13;;
739;SDS011;354;42.694;23.336;2023-11-21T01:14:29;49.33;;;34.10;;
739;SDS011;354;42.694;23.336;2023-11-21T01:16:55;47.63;;;35.20;;
739;SDS011;354;42.694;23.336;2023-11-21T01:19:20;45.77;;;32.27;;
739;SDS011;354;42.694;23.336;2023-11-21T01:21:46;48.50;;;34.07;;
739;SDS011;354;42.694;23.336;2023-11-21T01:24:12;46.17;;;32.73;;
739;SDS011;354;42.694;23.336;2023-11-21T01:26:37;46.27;;;33.13;;
739;SDS011;354;42.694;23.336;2023-11-21T01:29:02;47.90;;;32.27;;
739;SDS011;354;42.694;23.336;2023-11-21T01:31:28;46.77;;;31.70;;
739;SDS011;354;42.694;23.336;2023-11-21T01:33:55;42.50;;;30.53;;
739;SDS011;354;42.694;23.336;2023-11-21T01:36:21;49.58;;;34.78;;
739;SDS011;354;42.694;23.336;2023-11-21T01:38:46;46.13;;;32.80;;
739;SDS011;354;42.694;23.336;2023-11-21T01:41:13;50.20;;;34.00;;
739;SDS011;354;42.694;23.336;2023-11-21T01:43:39;47.37;;;35.53;;
739;SDS011;354;42.694;23.336;2023-11-21T01:46:05;47.97;;;33.43;;
739;SDS011;354;42.694;23.336;2023-11-21T01:48:31;44.93;;;32.07;;
739;SDS011;354;42.694;23.336;2023-11-21T01:50:57;44.27;;;30.37;;
739;SDS011;354;42.694;23.336;2023-11-21T01:53:24;42.67;;;31.27;;
739;SDS011;354;42.694;23.336;2023-11-21T01:55:51;50.13;;;30.83;;
739;SDS011;354;42.694;23.336;2023-11-21T01:58:17;40.17;;;28.97;;
739;SDS011;354;42.694;23.336;2023-11-21T02:00:42;37.07;;;26.17;;
739;SDS011;354;42.694;23.336;2023-11-21T02:03:08;37.37;;;28.73;;
739;SDS011;354;42.694;23.336;2023-11-21T02:05:35;39.07;;;27.27;;
739;SDS011;354;42.694;23.336;2023-11-21T02:08:01;40.43;;;30.40;;
739;SDS011;354;42.694;23.336;2023-11-21T02:10:27;27.50;;;20.33;;
739;SDS011;354;42.694;23.336;2023-11-21T02:12:54;29.83;;;22.87;;
739;SDS011;354;42.694;23.336;2023-11-21T02:15:21;29.20;;;22.23;;
739;SDS011;354;42.694;23.336;2023-11-21T02:17:48;30.43;;;24.07;;
739;SDS011;354;42.694;23.336;2023-11-21T02:20:19;30.63;;;22.03;;
739;SDS011;354;42.694;23.336;2023-11-21T02:22:55;30.53;;;22.97;;
739;SDS011;354;42.694;23.336;2023-11-21T02:25:25;31.40;;;22.90;;
739;SDS011;354;42.694;23.336;2023-11-21T02:27:50;33.67;;;22.57;;
739;SDS011;354;42.694;23.336;2023-11-21T02:30:16;32.80;;;23.30;;
739;SDS011;354;42.694;23.336;2023-11-21T02:32:42;31.83;;;23.33;;
739;SDS011;354;42.694;23.336;2023-11-21T02:35:08;34.90;;;24.27;;
739;SDS011;354;42.694;23.336;2023-11-21T02:37:34;28.27;;;22.97;;
739;SDS011;354;42.694;23.336;2023-11-21T02:40:00;30.43;;;22.67;;
739;SDS011;354;42.694;23.336;2023-11-21T02:42:29;29.00;;;23.47;;
739;SDS011;354;42.694;23.336;2023-11-21T02:44:54;29.00;;;23.67;;
739;SDS011;354;42.694;23.336;2023-11-21T02:47:19;33.13;;;24.00;;
739;SDS011;354;42.694;23.336;2023-11-21T02:49:45;33.57;;;25.53;;
739;SDS011;354;42.694;23.336;2023-11-21T02:52:10;31.73;;;24.80;;
739;SDS011;354;42.694;23.336;2023-11-21T02:54:36;33.40;;;25.23;;
739;SDS011;354;42.694;23.336;2023-11-21T02:57:01;33.37;;;25.03;;
739;SDS011;354;42.694;23.336;2023-11-21T02:59:27;35.47;;;25.37;;
739;SDS011;354;42.694;23.336;2023-11-21T03:01:53;34.37;;;26.77;;
739;SDS011;354;42.694;23.336;2023-11-21T03:04:18;37.40;;;27.80;;
739;SDS011;354;42.694;23.336;2023-11-21T03:06:44;38.00;;;25.87;;
739;SDS011;354;42.694;23.336;2023-11-21T03:09:10;34.43;;;27.90;;
739;SDS011;354;42.694;23.336;2023-11-21T03:11:37;37.40;;;28.23;;
739;SDS011;354;42.694;23.336;2023-11-21T03:14:03;38.23;;;29.10;;
739;SDS011;354;42.694;23.336;2023-11-21T03:16:28;39.13;;;26.77;;
739;SDS011;354;42.694;23.336;2023-11-21T03:18:54;37.63;;;27.83;;
739;SDS011;354;42.694;23.336;2023-11-21T03:21:19;25.63;;;21.03;;
739;SDS011;354;42.694;23.336;2023-11-21T03:23:45;28.20;;;21.53;;
739;SDS011;354;42.694;23.336;2023-11-21T03:26:13;22.57;;;20.23;;
739;SDS011;354;42.694;23.336;2023-11-21T03:28:38;23.10;;;20.63;;
739;SDS011;354;42.694;23.336;2023-11-21T03:31:04;21.23;;;18.97;;
739;SDS011;354;42.694;23.336;2023-11-21T03:33:31;24.10;;;19.13;;
739;SDS011;354;42.694;23.336;2023-11-21T03:35:57;21.43;;;17.90;;
739;SDS011;354;42.694;23.336;2023-11-21T03:38:22;26.40;;;19.97;;
739;SDS011;354;42.694;23.336;2023-11-21T03:40:48;23.93;;;19.77;;
739;SDS011;354;42.694;23.336;2023-11-21T03:43:14;23.50;;;18.77;;
739;SDS011;354;42.694;23.336;2023-11-21T03:45:39;23.87;;;19.33;;
739;SDS011;354;42.694;23.336;2023-11-21T03:48:06;25.43;;;18.77;;
739;SDS011;354;42.694;23.336;2023-11-21T03:50:31;23.90;;;21.20;;
739;SDS011;354;42.694;23.336;2023-11-21T03:52:57;27.70;;;21.03;;
739;SDS011;354;42.694;23.336;2023-11-21T03:55:22;27.60;;;21.37;;
739;SDS011;354;42.694;23.336;2023-11-21T03:57:53;27.10;;;20.27;;
739;SDS011;354;42.694;23.336;2023-11-21T04:00:19;30.63;;;23.00;;
739;SDS011;354;42.694;23.336;2023-11-21T04:02:47;25.97;;;22.63;;
739;SDS011;354;42.694;23.336;2023-11-21T04:05:12;26.00;;;21.90;;
739;SDS011;354;42.694;23.336;2023-11-21T04:07:38;27.57;;;21.43;;
739;SDS011;354;42.694;23.336;2023-11-21T04:10:04;35.40;;;23.13;;
739;SDS011;354;42.694;23.336;2023-11-21T04:12:33;36.37;;;24.07;;
739;SDS011;354;42.694;23.336;2023-11-21T04:14:58;30.33;;;24.53;;
739;SDS011;354;42.694;23.336;2023-11-21T04:17:23;32.30;;;24.00;;
739;SDS011;354;42.694;23.336;2023-11-21T04:19:49;31.93;;;23.07;;
739;SDS011;354;42.694;23.336;2023-11-21T04:22:14;30.90;;;25.83;;
739;SDS011;354;42.694;23.336;2023-11-21T04:24:39;28.67;;;21.93;;
739;SDS011;354;42.694;23.336;2023-11-21T04:27:05;31.37;;;23.73;;
739;SDS011;354;42.694;23.336;2023-11-21T04:29:30;31.03;;;22.97;;
739;SDS011;354;42.694;23.336;2023-11-21T04:31:56;30.90;;;25.83;;
739;SDS011;354;42.694;23.336;2023-11-21T04:34:21;27.60;;;22.30;;
739;SDS011;354;42.694;23.336;2023-11-21T04:36:46;30.87;;;24.63;;
739;SDS011;354;42.694;23.336;2023-11-21T04:39:12;27.23;;;23.03;;
739;SDS011;354;42.694;23.336;2023-11-21T04:41:37;29.17;;;25.30;;
739;SDS011;354;42.694;23.336;2023-11-21T04:44:04;31.87;;;23.97;;
739;SDS011;354;42.694;23.336;2023-11-21T04:46:30;29.27;;;22.30;;
739;SDS011;354;42.694;23.336;2023-11-21T04:48:56;33.97;;;24.83;;
739;SDS011;354;42.694;23.336;2023-11-21T04:51:22;30.20;;;23.10;;
739;SDS011;354;42.694;23.336;2023-11-21T04:53:47;29.73;;;23.80;;
739;SDS011;354;42.694;23.336;2023-11-21T04:56:13;31.20;;;23.37;;
739;SDS011;354;42.694;23.336;2023-11-21T04:58:39;30.23;;;25.73;;
739;SDS011;354;42.694;23.336;2023-11-21T05:01:05;29.73;;;23.73;;
739;SDS011;354;42.694;23.336;2023-11-21T05:03:32;31.53;;;26.30;;
739;SDS011;354;42.694;23.336;2023-11-21T05:05:57;29.93;;;23.40;;
739;SDS011;354;42.694;23.336;2023-11-21T05:08:22;33.73;;;26.63;;
739;SDS011;354;42.694;23.336;2023-11-21T05:10:48;35.93;;;26.73;;
739;SDS011;354;42.694;23.336;2023-11-21T05:13:14;36.67;;;26.70;;
739;SDS011;354;42.694;23.336;2023-11-21T05:15:42;32.53;;;25.77;;
739;SDS011;354;42.694;23.336;2023-11-21T05:18:07;33.50;;;26.50;;
739;SDS011;354;42.694;23.336;2023-11-21T05:20:33;35.13;;;26.50;;
739;SDS011;354;42.694;23.336;2023-11-21T05:22:58;34.93;;;26.47;;
739;SDS011;354;42.694;23.336;2023-11-21T05:25:24;34.13;;;25.60;;
739;SDS011;354;42.694;23.336;2023-11-21T05:27:49;34.57;;;25.70;;
739;SDS011;354;42.694;23.336;2023-11-21T05:30:15;33.83;;;27.90;;
739;SDS011;354;42.694;23.336;2023-11-21T05:32:40;35.07;;;25.77;;
739;SDS011;354;42.694;23.336;2023-11-21T05:35:09;33.87;;;26.80;;
739;SDS011;354;42.694;23.336;2023-11-21T05:37:37;32.23;;;25.10;;
739;SDS011;354;42.694;23.336;2023-11-21T05:40:04;34.20;;;26.67;;
739;SDS011;354;42.694;23.336;2023-11-21T05:42:31;42.17;;;26.67;;
739;SDS011;354;42.694;23.336;2023-11-21T05:44:57;38.17;;;30.20;;
739;SDS011;354;42.694;23.336;2023-11-21T05:47:24;32.17;;;26.23;;
739;SDS011;354;42.694;23.336;2023-11-21T05:49:51;32.13;;;26.80;;
739;SDS011;354;42.694;23.336;2023-11-21T05:52:17;34.20;;;28.00;;
739;SDS011;354;42.694;23.336;2023-11-21T05:54:43;30.70;;;25.03;;
739;SDS011;354;42.694;23.336;2023-11-21T05:57:08;43.00;;;31.17;;
739;SDS011;354;42.694;23.336;2023-11-21T05:59:34;49.47;;;32.63;;
739;SDS011;354;42.694;23.336;2023-11-21T06:01:59;57.23;;;37.63;;
739;SDS011;354;42.694;23.336;2023-11-21T06:04:24;53.23;;;37.63;;
739;SDS011;354;42.694;23.336;2023-11-21T06:06:51;49.80;;;35.13;;
739;SDS011;354;42.694;23.336;2023-11-21T06:09:17;51.90;;;36.73;;
739;SDS011;354;42.694;23.336;2023-11-21T06:11:44;53.40;;;40.37;;
739;SDS011;354;42.694;23.336;2023-11-21T06:14:09;50.47;;;36.43;;
739;SDS011;354;42.694;23.336;2023-11-21T06:16:36;48.50;;;37.27;;
739;SDS011;354;42.694;23.336;2023-11-21T06:19:01;51.40;;;37.80;;
739;SDS011;354;42.694;23.336;2023-11-21T06:21:26;43.37;;;36.00;;
739;SDS011;354;42.694;23.336;2023-11-21T06:23:52;43.87;;;38.97;;
739;SDS011;354;42.694;23.336;2023-11-21T06:26:18;42.37;;;37.70;;
739;SDS011;354;42.694;23.336;2023-11-21T06:28:43;41.90;;;37.30;;
739;SDS011;354;42.694;23.336;2023-11-21T06:31:09;49.10;;;38.73;;
739;SDS011;354;42.694;23.336;2023-11-21T06:33:35;45.57;;;39.07;;
739;SDS011;354;42.694;23.336;2023-11-21T06:36:01;51.07;;;42.07;;
739;SDS011;354;42.694;23.336;2023-11-21T06:38:31;48.87;;;41.63;;
739;SDS011;354;42.694;23.336;2023-11-21T06:40:57;49.70;;;39.30;;
739;SDS011;354;42.694;23.336;2023-11-21T06:43:23;51.23;;;43.43;;
739;SDS011;354;42.694;23.336;2023-11-21T06:45:48;47.50;;;40.23;;
739;SDS011;354;42.694;23.336;2023-11-21T06:48:14;48.20;;;41.47;;
739;SDS011;354;42.694;23.336;2023-11-21T06:50:40;54.93;;;40.33;;
739;SDS011;354;42.694;23.336;2023-11-21T06:53:05;45.43;;;40.57;;
739;SDS011;354;42.694;23.336;2023-11-21T06:55:32;51.90;;;39.77;;
739;SDS011;354;42.694;23.336;2023-11-21T06:57:58;44.43;;;38.23;;
739;SDS011;354;42.694;23.336;2023-11-21T07:00:25;49.93;;;38.67;;
739;SDS011;354;42.694;23.336;2023-11-21T07:02:52;43.97;;;35.90;;
739;SDS011;354;42.694;23.336;2023-11-21T07:05:18;46.63;;;34.47;;
739;SDS011;354;42.694;23.336;2023-11-21T07:07:46;63.03;;;45.10;;
739;SDS011;354;42.694;23.336;2023-11-21T07:10:11;47.17;;;33.13;;
739;SDS011;354;42.694;23.336;2023-11-21T07:12:37;38.27;;;30.33;;
739;SDS011;354;42.694;23.336;2023-11-21T07:15:03;34.70;;;27.73;;
739;SDS011;354;42.694;23.336;2023-11-21T07:17:30;38.73;;;28.90;;
739;SDS011;354;42.694;23.336;2023-11-21T07:19:56;31.20;;;25.40;;
739;SDS011;354;42.694;23.336;2023-11-21T07:22:21;31.77;;;26.97;;
739;SDS011;354;42.694;23.336;2023-11-21T07:24:50;27.47;;;24.47;;
739;SDS011;354;42.694;23.336;2023-11-21T07:27:16;28.13;;;23.70;;
739;SDS011;354;42.694;23.336;2023-11-21T07:29:41;30.17;;;22.70;;
739;SDS011;354;42.694;23.336;2023-11-21T07:32:06;26.40;;;22.57;;
739;SDS011;354;42.694;23.336;2023-11-21T07:34:34;26.23;;;21.73;;
739;SDS011;354;42.694;23.336;2023-11-21T07:36:59;30.47;;;22.20;;
739;SDS011;354;42.694;23.336;2023-11-21T07:39:25;28.70;;;21.57;;
739;SDS011;354;42.694;23.336;2023-11-21T07:41:50;26.60;;;20.23;;
739;SDS011;354;42.694;23.336;2023-11-21T07:44:19;25.17;;;19.23;;
739;SDS011;354;42.694;23.336;2023-11-21T07:46:44;25.63;;;20.97;;
739;SDS011;354;42.694;23.336;2023-11-21T07:49:10;27.13;;;23.80;;
739;SDS011;354;42.694;23.336;2023-11-21T07:51:36;38.13;;;31.73;;
739;SDS011;354;42.694;23.336;2023-11-21T07:54:01;41.70;;;31.50;;
739;SDS011;354;42.694;23.336;2023-11-21T07:56:27;46.73;;;35.63;;
739;SDS011;354;42.694;23.336;2023-11-21T07:58:52;44.23;;;33.50;;
739;SDS011;354;42.694;23.336;2023-11-21T08:01:17;46.73;;;33.47;;
739;SDS011;354;42.694;23.336;2023-11-21T08:03:43;45.33;;;31.93;;
739;SDS011;354;42.694;23.336;2023-11-21T08:06:09;47.13;;;35.17;;
739;SDS011;354;42.694;23.336;2023-11-21T08:08:34;45.43;;;33.40;;
739;SDS011;354;42.694;23.336;2023-11-21T08:10:59;38.00;;;29.67;;
739;SDS011;354;42.694;23.336;2023-11-21T08:13:27;37.80;;;30.73;;
739;SDS011;354;42.694;23.336;2023-11-21T08:15:56;47.63;;;34.30;;
739;SDS011;354;42.694;23.336;2023-11-21T08:18:27;41.17;;;32.37;;
739;SDS011;354;42.694;23.336;2023-11-21T08:20:52;47.23;;;34.13;;
739;SDS011;354;42.694;23.336;2023-11-21T08:23:20;40.93;;;32.57;;
739;SDS011;354;42.694;23.336;2023-11-21T08:25:45;46.87;;;31.43;;
739;SDS011;354;42.694;23.336;2023-11-21T08:28:11;43.30;;;32.90;;
739;SDS011;354;42.694;23.336;2023-11-21T08:30:41;42.60;;;31.03;;
739;SDS011;354;42.694;23.336;2023-11-21T08:33:06;42.67;;;29.90;;
739;SDS011;354;42.694;23.336;2023-11-21T08:35:33;38.63;;;30.47;;
739;SDS011;354;42.694;23.336;2023-11-21T08:37:59;37.10;;;30.07;;
739;SDS011;354;42.694;23.336;2023-11-21T08:40:24;39.50;;;28.73;;
739;SDS011;354;42.694;23.336;2023-11-21T08:42:50;42.80;;;29.93;;
739;SDS011;354;42.694;23.336;2023-11-21T08:45:17;37.90;;;28.97;;
739;SDS011;354;42.694;23.336;2023-11-21T08:47:44;37.90;;;28.73;;
739;SDS011;354;42.694;23.336;2023-11-21T08:50:10;38.03;;;28.93;;
739;SDS011;354;42.694;23.336;2023-11-21T08:52:37;44.30;;;31.37;;
739;SDS011;354;42.694;23.336;2023-11-21T08:55:04;36.87;;;29.70;;
739;SDS011;354;42.694;23.336;2023-11-21T08:57:35;36.30;;;29.00;;
739;SDS011;354;42.694;23.336;2023-11-21T09:00:05;37.57;;;30.07;;
739;SDS011;354;42.694;23.336;2023-11-21T09:02:40;37.87;;;30.03;;
739;SDS011;354;42.694;23.336;2023-11-21T09:05:09;40.40;;;30.23;;
739;SDS011;354;42.694;23.336;2023-11-21T09:07:35;34.77;;;29.20;;
739;SDS011;354;42.694;23.336;2023-11-21T09:10:02;40.30;;;27.73;;
739;SDS011;354;42.694;23.336;2023-11-21T09:12:28;35.33;;;26.73;;
739;SDS011;354;42.694;23.336;2023-11-21T09:14:54;36.00;;;26.90;;
739;SDS011;354;42.694;23.336;2023-11-21T09:17:19;38.60;;;28.03;;
739;SDS011;354;42.694;23.336;2023-11-21T09:19:45;46.17;;;31.43;;
739;SDS011;354;42.694;23.336;2023-11-21T09:22:14;40.83;;;32.10;;
739;SDS011;354;42.694;23.336;2023-11-21T09:24:40;43.13;;;34.10;;
739;SDS011;354;42.694;23.336;2023-11-21T09:27:06;58.90;;;37.10;;
739;SDS011;354;42.694;23.336;2023-11-21T09:29:31;46.30;;;33.87;;
739;SDS011;354;42.694;23.336;2023-11-21T09:32:00;45.27;;;33.93;;
739;SDS011;354;42.694;23.336;2023-11-21T09:34:26;49.57;;;35.33;;
739;SDS011;354;42.694;23.336;2023-11-21T09:36:51;44.53;;;36.60;;
739;SDS011;354;42.694;23.336;2023-11-21T09:39:17;48.40;;;36.33;;
739;SDS011;354;42.694;23.336;2023-11-21T09:41:48;49.77;;;35.93;;
739;SDS011;354;42.694;23.336;2023-11-21T09:44:20;44.47;;;34.07;;
739;SDS011;354;42.694;23.336;2023-11-21T09:46:51;52.70;;;36.03;;
739;SDS011;354;42.694;23.336;2023-11-21T09:49:20;44.43;;;34.33;;
739;SDS011;354;42.694;23.336;2023-11-21T09:51:50;47.23;;;34.47;;
739;SDS011;354;42.694;23.336;2023-11-21T09:54:20;42.40;;;33.80;;
739;SDS011;354;42.694;23.336;2023-11-21T09:56:46;46.07;;;34.57;;
739;SDS011;354;42.694;23.336;2023-11-21T09:59:13;44.93;;;33.20;;
739;SDS011;354;42.694;23.336;2023-11-21T10:01:40;45.13;;;33.13;;
739;SDS011;354;42.694;23.336;2023-11-21T10:04:07;40.73;;;33.10;;
739;SDS011;354;42.694;23.336;2023-11-21T10:06:39;44.63;;;35.37;;
739;SDS011;354;42.694;23.336;2023-11-21T10:09:11;56.13;;;39.20;;
739;SDS011;354;42.694;23.336;2023-11-21T10:11:41;35.97;;;29.07;;
739;SDS011;354;42.694;23.336;2023-11-21T10:14:10;37.00;;;30.50;;
739;SDS011;354;42.694;23.336;2023-11-21T10:16:38;40.37;;;29.73;;
739;SDS011;354;42.694;23.336;2023-11-21T10:19:04;37.47;;;28.93;;
739;SDS011;354;42.694;23.336;2023-11-21T10:21:32;37.37;;;26.83;;
739;SDS011;354;42.694;23.336;2023-11-21T10:23:58;37.40;;;27.97;;
739;SDS011;354;42.694;23.336;2023-11-21T10:26:24;34.17;;;24.40;;
739;SDS011;354;42.694;23.336;2023-11-21T10:28:55;32.43;;;25.17;;
739;SDS011;354;42.694;23.336;2023-11-21T10:31:26;31.00;;;24.07;;
739;SDS011;354;42.694;23.336;2023-11-21T10:33:52;26.63;;;23.20;;
739;SDS011;354;42.694;23.336;2023-11-21T10:36:27;31.60;;;23.57;;
739;SDS011;354;42.694;23.336;2023-11-21T10:38:53;32.00;;;25.03;;
739;SDS011;354;42.694;23.336;2023-11-21T10:41:19;32.90;;;25.33;;
739;SDS011;354;42.694;23.336;2023-11-21T10:43:45;28.30;;;22.90;;
739;SDS011;354;42.694;23.336;2023-11-21T10:46:11;31.30;;;27.07;;
739;SDS011;354;42.694;23.336;2023-11-21T10:48:36;31.43;;;24.53;;
739;SDS011;354;42.694;23.336;2023-11-21T10:51:06;35.23;;;25.10;;
739;SDS011;354;42.694;23.336;2023-11-21T10:53:32;38.00;;;26.77;;
739;SDS011;354;42.694;23.336;2023-11-21T10:56:05;33.40;;;25.20;;
739;SDS011;354;42.694;23.336;2023-11-21T10:58:33;41.90;;;27.27;;
739;SDS011;354;42.694;23.336;2023-11-21T11:01:01;40.47;;;27.17;;
739;SDS011;354;42.694;23.336;2023-11-21T11:03:30;33.67;;;21.50;;
739;SDS011;354;42.694;23.336;2023-11-21T11:05:58;26.03;;;21.17;;
739;SDS011;354;42.694;23.336;2023-11-21T11:08:24;35.50;;;26.70;;
739;SDS011;354;42.694;23.336;2023-11-21T11:10:54;26.67;;;20.93;;
739;SDS011;354;42.694;23.336;2023-11-21T11:13:19;29.10;;;21.90;;
739;SDS011;354;42.694;23.336;2023-11-21T11:15:49;27.77;;;21.80;;
739;SDS011;354;42.694;23.336;2023-11-21T11:18:15;27.83;;;22.43;;
739;SDS011;354;42.694;23.336;2023-11-21T11:20:42;25.50;;;20.60;;
739;SDS011;354;42.694;23.336;2023-11-21T11:34:24;28.10;;;22.20;;
739;SDS011;354;42.694;23.336;2023-11-21T11:37:05;23.70;;;19.70;;
739;SDS011;354;42.694;23.336;2023-11-21T11:39:38;24.13;;;21.53;;
739;SDS011;354;42.694;23.336;2023-11-21T11:42:07;24.60;;;20.70;;
739;SDS011;354;42.694;23.336;2023-11-21T11:54:57;29.67;;;21.40;;
739;SDS011;354;42.694;23.336;2023-11-21T11:57:24;28.20;;;21.83;;
739;SDS011;354;42.694;23.336;2023-11-21T12:00:09;30.00;;;22.07;;
739;SDS011;354;42.694;23.336;2023-11-21T12:02:53;31.27;;;23.23;;
739;SDS011;354;42.694;23.336;2023-11-21T12:05:22;30.37;;;21.87;;
739;SDS011;354;42.694;23.336;2023-11-21T12:07:49;26.93;;;22.87;;
739;SDS011;354;42.694;23.336;2023-11-21T12:10:15;34.67;;;24.17;;
739;SDS011;354;42.694;23.336;2023-11-21T12:12:46;32.93;;;27.77;;
739;SDS011;354;42.694;23.336;2023-11-21T12:15:15;32.50;;;28.00;;
739;SDS011;354;42.694;23.336;2023-11-21T12:17:41;35.53;;;30.03;;
739;SDS011;354;42.694;23.336;2023-11-21T12:20:09;35.97;;;30.37;;
739;SDS011;354;42.694;23.336;2023-11-21T12:25:15;36.83;;;28.97;;
739;SDS011;354;42.694;23.336;2023-11-21T12:27:44;37.77;;;30.70;;
739;SDS011;354;42.694;23.336;2023-11-21T12:30:11;39.23;;;30.40;;
739;SDS011;354;42.694;23.336;2023-11-21T12:32:41;36.57;;;28.77;;
739;SDS011;354;42.694;23.336;2023-11-21T12:35:08;40.00;;;26.63;;
739;SDS011;354;42.694;23.336;2023-11-21T12:37:35;36.63;;;26.97;;
739;SDS011;354;42.694;23.336;2023-11-21T12:40:02;31.57;;;25.27;;
739;SDS011;354;42.694;23.336;2023-11-21T12:42:28;36.70;;;28.60;;
739;SDS011;354;42.694;23.336;2023-11-21T12:45:08;40.97;;;29.30;;
739;SDS011;354;42.694;23.336;2023-11-21T12:47:41;35.37;;;27.23;;
739;SDS011;354;42.694;23.336;2023-11-21T12:50:08;37.17;;;29.07;;
739;SDS011;354;42.694;23.336;2023-11-21T12:52:40;42.03;;;29.93;;
739;SDS011;354;42.694;23.336;2023-11-21T12:55:16;35.27;;;28.23;;
739;SDS011;354;42.694;23.336;2023-11-21T12:57:42;42.63;;;29.10;;
739;SDS011;354;42.694;23.336;2023-11-21T13:00:08;34.77;;;25.03;;
739;SDS011;354;42.694;23.336;2023-11-21T13:02:38;33.60;;;24.87;;
739;SDS011;354;42.694;23.336;2023-11-21T13:05:04;34.97;;;26.37;;
739;SDS011;354;42.694;23.336;2023-11-21T13:07:41;27.50;;;22.30;;
739;SDS011;354;42.694;23.336;2023-11-21T13:10:12;29.30;;;22.60;;
739;SDS011;354;42.694;23.336;2023-11-21T13:12:42;29.27;;;22.60;;
739;SDS011;354;42.694;23.336;2023-11-21T13:15:09;30.70;;;23.63;;
739;SDS011;354;42.694;23.336;2023-11-21T13:17:35;32.70;;;23.63;;
739;SDS011;354;42.694;23.336;2023-11-21T13:20:00;31.00;;;25.47;;
739;SDS011;354;42.694;23.336;2023-11-21T13:22:30;37.23;;;23.67;;
739;SDS011;354;42.694;23.336;2023-11-21T13:24:58;48.00;;;35.40;;
739;SDS011;354;42.694;23.336;2023-11-21T13:27:23;34.43;;;28.23;;
739;SDS011;354;42.694;23.336;2023-11-21T13:29:50;35.40;;;23.40;;
739;SDS011;354;42.694;23.336;2023-11-21T13:32:16;33.40;;;26.47;;
739;SDS011;354;42.694;23.336;2023-11-21T13:34:48;30.83;;;27.37;;
739;SDS011;354;42.694;23.336;2023-11-21T13:37:18;33.50;;;25.97;;
739;SDS011;354;42.694;23.336;2023-11-21T13:39:43;41.07;;;28.47;;
739;SDS011;354;42.694;23.336;2023-11-21T13:42:10;37.73;;;25.87;;
739;SDS011;354;42.694;23.336;2023-11-21T13:44:36;36.00;;;26.33;;
739;SDS011;354;42.694;23.336;2023-11-21T13:47:03;34.67;;;27.10;;
739;SDS011;354;42.694;23.336;2023-11-21T13:49:30;33.87;;;27.23;;
739;SDS011;354;42.694;23.336;2023-11-21T13:52:01;36.60;;;26.30;;
739;SDS011;354;42.694;23.336;2023-11-21T13:54:28;34.33;;;27.43;;
739;SDS011;354;42.694;23.336;2023-11-21T13:56:54;36.47;;;28.53;;
739;SDS011;354;42.694;23.336;2023-11-21T13:59:19;36.07;;;30.20;;
739;SDS011;354;42.694;23.336;2023-11-21T14:01:50;37.73;;;27.83;;
739;SDS011;354;42.694;23.336;2023-11-21T14:04:20;47.50;;;33.93;;
739;SDS011;354;42.694;23.336;2023-11-21T14:07:00;45.00;;;29.35;;
739;SDS011;354;42.694;23.336;2023-11-21T14:09:36;35.27;;;28.40;;
739;SDS011;354;42.694;23.336;2023-11-21T14:12:08;60.93;;;44.50;;
739;SDS011;354;42.694;23.336;2023-11-21T14:14:35;58.67;;;40.50;;
739;SDS011;354;42.694;23.336;2023-11-21T14:17:00;39.60;;;29.93;;
739;SDS011;354;42.694;23.336;2023-11-21T14:19:31;66.03;;;49.73;;
739;SDS011;354;42.694;23.336;2023-11-21T14:21:58;47.17;;;35.47;;
739;SDS011;354;42.694;23.336;2023-11-21T14:24:24;37.07;;;28.20;;
739;SDS011;354;42.694;23.336;2023-11-21T14:26:50;38.73;;;31.30;;
739;SDS011;354;42.694;23.336;2023-11-21T14:29:16;41.17;;;30.97;;
739;SDS011;354;42.694;23.336;2023-11-21T14:31:45;39.37;;;32.07;;
739;SDS011;354;42.694;23.336;2023-11-21T14:34:13;39.67;;;30.50;;
739;SDS011;354;42.694;23.336;2023-11-21T14:36:40;39.60;;;31.13;;
739;SDS011;354;42.694;23.336;2023-11-21T14:39:06;36.40;;;29.03;;
739;SDS011;354;42.694;23.336;2023-11-21T14:41:34;40.37;;;31.77;;
739;SDS011;354;42.694;23.336;2023-11-21T14:44:02;40.97;;;30.33;;
739;SDS011;354;42.694;23.336;2023-11-21T14:46:32;48.60;;;32.10;;
739;SDS011;354;42.694;23.336;2023-11-21T14:49:00;44.60;;;32.90;;
739;SDS011;354;42.694;23.336;2023-11-21T14:51:42;44.47;;;32.53;;
739;SDS011;354;42.694;23.336;2023-11-21T14:54:30;40.03;;;29.70;;
739;SDS011;354;42.694;23.336;2023-11-21T14:57:06;45.37;;;33.53;;
739;SDS011;354;42.694;23.336;2023-11-21T14:59:36;58.83;;;39.20;;
739;SDS011;354;42.694;23.336;2023-11-21T15:02:03;64.73;;;49.17;;
739;SDS011;354;42.694;23.336;2023-11-21T15:04:42;47.63;;;32.87;;
739;SDS011;354;42.694;23.336;2023-11-21T15:07:08;40.33;;;31.77;;
739;SDS011;354;42.694;23.336;2023-11-21T15:09:36;38.33;;;33.00;;
739;SDS011;354;42.694;23.336;2023-11-21T15:12:07;48.77;;;36.73;;
739;SDS011;354;42.694;23.336;2023-11-21T15:17:13;43.40;;;31.90;;
739;SDS011;354;42.694;23.336;2023-11-21T15:19:55;45.27;;;32.23;;
739;SDS011;354;42.694;23.336;2023-11-21T15:22:20;42.87;;;34.50;;
739;SDS011;354;42.694;23.336;2023-11-21T15:24:47;50.13;;;34.07;;
739;SDS011;354;42.694;23.336;2023-11-21T15:27:14;46.23;;;34.87;;